sensor_id;sensor_type;location;lat;lon;timestamp;P1;durP1;ratioP1;P2;durP2;ratioP2
11907;SDS011;6014;47.690;9.130;2023-09-18T00:01:14;6.88;;;3.60;;
11907;SDS011;6014;47.690;9.130;2023-09-18T00:07:45;7.18;;;2.83;;
11907;SDS011;6014;47.690;9.130;2023-09-18T00:14:05;8.98;;;3.20;;
11907;SDS011;6014;47.690;9.130;2023-09-18T00:17:16;8.05;;;3.03;;
11907;SDS011;6014;47.690;9.130;2023-09-18T00:19:46;9.88;;;3.20;;
11907;SDS011;6014;47.690;9.130;2023-09-18T00:22:15;5.80;;;3.00;;
11907;SDS011;6014;47.690;9.130;2023-09-18T00:24:46;6.22;;;3.30;;
11907;SDS011;6014;47.690;9.130;2023-09-18T00:27:19;5.03;;;2.80;;
11907;SDS011;6014;47.690;9.130;2023-09-18T00:33:47;7.72;;;3.35;;
11907;SDS011;6014;47.690;9.130;2023-09-18T00:37:04;7.65;;;3.80;;
11907;SDS011;6014;47.690;9.130;2023-09-18T00:43:39;7.43;;;3.40;;
11907;SDS011;6014;47.690;9.130;2023-09-18T00:47:20;9.95;;;3.40;;
11907;SDS011;6014;47.690;9.130;2023-09-18T00:50:52;7.82;;;3.58;;
11907;SDS011;6014;47.690;9.130;2023-09-18T00:53:21;5.03;;;3.17;;
11907;SDS011;6014;47.690;9.130;2023-09-18T00:55:55;6.75;;;3.42;;
11907;SDS011;6014;47.690;9.130;2023-09-18T00:58:30;7.78;;;3.13;;
11907;SDS011;6014;47.690;9.130;2023-09-18T01:01:30;7.05;;;2.90;;
11907;SDS011;6014;47.690;9.130;2023-09-18T01:04:07;7.47;;;3.75;;
11907;SDS011;6014;47.690;9.130;2023-09-18T01:07:18;9.45;;;3.50;;
11907;SDS011;6014;47.690;9.130;2023-09-18T01:13:52;6.72;;;3.20;;
11907;SDS011;6014;47.690;9.130;2023-09-18T01:17:25;7.70;;;3.35;;
11907;SDS011;6014;47.690;9.130;2023-09-18T01:20:31;8.68;;;3.20;;
11907;SDS011;6014;47.690;9.130;2023-09-18T01:23:24;10.38;;;3.10;;
11907;SDS011;6014;47.690;9.130;2023-09-18T01:25:57;8.10;;;3.45;;
11907;SDS011;6014;47.690;9.130;2023-09-18T01:28:27;7.85;;;3.50;;
11907;SDS011;6014;47.690;9.130;2023-09-18T01:31:19;6.18;;;3.05;;
11907;SDS011;6014;47.690;9.130;2023-09-18T01:34:42;8.20;;;3.90;;
11907;SDS011;6014;47.690;9.130;2023-09-18T01:48:49;7.13;;;2.75;;
11907;SDS011;6014;47.690;9.130;2023-09-18T01:55:24;6.07;;;3.30;;
11907;SDS011;6014;47.690;9.130;2023-09-18T01:58:19;7.38;;;3.30;;
11907;SDS011;6014;47.690;9.130;2023-09-18T02:01:00;5.38;;;3.00;;
11907;SDS011;6014;47.690;9.130;2023-09-18T02:03:55;7.40;;;3.20;;
11907;SDS011;6014;47.690;9.130;2023-09-18T02:07:24;7.57;;;3.30;;
11907;SDS011;6014;47.690;9.130;2023-09-18T02:09:52;7.22;;;3.22;;
11907;SDS011;6014;47.690;9.130;2023-09-18T02:12:56;8.20;;;3.10;;
11907;SDS011;6014;47.690;9.130;2023-09-18T02:16:08;5.38;;;2.80;;
11907;SDS011;6014;47.690;9.130;2023-09-18T02:24:26;6.00;;;3.00;;
11907;SDS011;6014;47.690;9.130;2023-09-18T02:26:48;5.07;;;3.05;;
11907;SDS011;6014;47.690;9.130;2023-09-18T02:29:50;5.78;;;2.80;;
11907;SDS011;6014;47.690;9.130;2023-09-18T02:32:35;7.30;;;3.40;;
11907;SDS011;6014;47.690;9.130;2023-09-18T02:35:12;6.15;;;3.13;;
11907;SDS011;6014;47.690;9.130;2023-09-18T02:41:55;8.77;;;3.33;;
11907;SDS011;6014;47.690;9.130;2023-09-18T02:48:04;5.95;;;3.60;;
11907;SDS011;6014;47.690;9.130;2023-09-18T02:50:35;6.78;;;3.05;;
11907;SDS011;6014;47.690;9.130;2023-09-18T02:53:05;6.15;;;3.00;;
11907;SDS011;6014;47.690;9.130;2023-09-18T03:01:09;5.13;;;3.08;;
11907;SDS011;6014;47.690;9.130;2023-09-18T03:03:18;6.65;;;3.30;;
11907;SDS011;6014;47.690;9.130;2023-09-18T03:10:03;7.80;;;3.67;;
11907;SDS011;6014;47.690;9.130;2023-09-18T03:12:32;7.75;;;3.53;;
11907;SDS011;6014;47.690;9.130;2023-09-18T03:18:16;6.07;;;2.83;;
11907;SDS011;6014;47.690;9.130;2023-09-18T03:20:47;11.38;;;3.75;;
11907;SDS011;6014;47.690;9.130;2023-09-18T03:23:16;8.88;;;3.65;;
11907;SDS011;6014;47.690;9.130;2023-09-18T03:25:47;6.38;;;3.33;;
11907;SDS011;6014;47.690;9.130;2023-09-18T03:28:30;8.05;;;4.05;;
11907;SDS011;6014;47.690;9.130;2023-09-18T03:31:54;9.50;;;3.95;;
11907;SDS011;6014;47.690;9.130;2023-09-18T03:34:58;8.27;;;3.67;;
11907;SDS011;6014;47.690;9.130;2023-09-18T03:42:06;8.18;;;3.67;;
11907;SDS011;6014;47.690;9.130;2023-09-18T03:44:36;7.25;;;3.88;;
11907;SDS011;6014;47.690;9.130;2023-09-18T03:51:24;6.07;;;3.13;;
11907;SDS011;6014;47.690;9.130;2023-09-18T03:54:54;8.00;;;4.07;;
11907;SDS011;6014;47.690;9.130;2023-09-18T04:00:43;9.50;;;3.92;;
11907;SDS011;6014;47.690;9.130;2023-09-18T04:03:34;9.38;;;3.90;;
11907;SDS011;6014;47.690;9.130;2023-09-18T04:06:35;8.15;;;3.90;;
11907;SDS011;6014;47.690;9.130;2023-09-18T04:09:37;7.90;;;4.00;;
11907;SDS011;6014;47.690;9.130;2023-09-18T04:12:29;10.25;;;3.85;;
11907;SDS011;6014;47.690;9.130;2023-09-18T04:14:59;9.80;;;3.97;;
11907;SDS011;6014;47.690;9.130;2023-09-18T04:17:38;7.13;;;3.47;;
11907;SDS011;6014;47.690;9.130;2023-09-18T04:26:40;7.30;;;4.10;;
11907;SDS011;6014;47.690;9.130;2023-09-18T04:28:10;8.35;;;3.78;;
11907;SDS011;6014;47.690;9.130;2023-09-18T04:38:03;7.25;;;3.22;;
11907;SDS011;6014;47.690;9.130;2023-09-18T04:40:32;9.32;;;3.60;;
11907;SDS011;6014;47.690;9.130;2023-09-18T04:48:06;5.45;;;3.00;;
11907;SDS011;6014;47.690;9.130;2023-09-18T04:50:44;8.32;;;3.78;;
11907;SDS011;6014;47.690;9.130;2023-09-18T04:53:47;8.95;;;3.42;;
11907;SDS011;6014;47.690;9.130;2023-09-18T04:56:39;7.75;;;3.05;;
11907;SDS011;6014;47.690;9.130;2023-09-18T04:59:52;9.02;;;3.58;;
11907;SDS011;6014;47.690;9.130;2023-09-18T05:03:29;6.28;;;3.22;;
11907;SDS011;6014;47.690;9.130;2023-09-18T05:06:27;10.65;;;3.40;;
11907;SDS011;6014;47.690;9.130;2023-09-18T05:09:26;9.07;;;3.40;;
11907;SDS011;6014;47.690;9.130;2023-09-18T05:12:02;7.05;;;3.50;;
11907;SDS011;6014;47.690;9.130;2023-09-18T05:15:06;8.88;;;3.25;;
11907;SDS011;6014;47.690;9.130;2023-09-18T05:17:40;10.75;;;3.25;;
11907;SDS011;6014;47.690;9.130;2023-09-18T05:23:59;7.75;;;3.45;;
11907;SDS011;6014;47.690;9.130;2023-09-18T05:26:35;8.23;;;3.78;;
11907;SDS011;6014;47.690;9.130;2023-09-18T05:29:40;9.65;;;3.90;;
11907;SDS011;6014;47.690;9.130;2023-09-18T05:33:05;11.07;;;3.55;;
11907;SDS011;6014;47.690;9.130;2023-09-18T05:35:51;6.20;;;2.85;;
11907;SDS011;6014;47.690;9.130;2023-09-18T05:38:25;15.88;;;4.32;;
11907;SDS011;6014;47.690;9.130;2023-09-18T05:40:54;10.00;;;3.65;;
11907;SDS011;6014;47.690;9.130;2023-09-18T05:43:26;11.43;;;3.15;;
11907;SDS011;6014;47.690;9.130;2023-09-18T05:45:56;10.85;;;3.17;;
11907;SDS011;6014;47.690;9.130;2023-09-18T05:48:30;7.90;;;3.10;;
11907;SDS011;6014;47.690;9.130;2023-09-18T05:50:59;9.15;;;3.55;;
11907;SDS011;6014;47.690;9.130;2023-09-18T05:53:29;8.52;;;2.72;;
11907;SDS011;6014;47.690;9.130;2023-09-18T05:55:59;11.30;;;2.65;;
11907;SDS011;6014;47.690;9.130;2023-09-18T05:58:54;7.68;;;2.78;;
11907;SDS011;6014;47.690;9.130;2023-09-18T06:01:23;14.52;;;2.78;;
11907;SDS011;6014;47.690;9.130;2023-09-18T06:03:51;5.70;;;2.35;;
11907;SDS011;6014;47.690;9.130;2023-09-18T06:06:20;6.68;;;2.67;;
11907;SDS011;6014;47.690;9.130;2023-09-18T06:08:52;7.82;;;2.75;;
11907;SDS011;6014;47.690;9.130;2023-09-18T06:11:21;11.02;;;3.22;;
11907;SDS011;6014;47.690;9.130;2023-09-18T06:16:22;8.75;;;2.72;;
11907;SDS011;6014;47.690;9.130;2023-09-18T06:18:51;8.00;;;2.97;;
11907;SDS011;6014;47.690;9.130;2023-09-18T06:21:22;9.90;;;2.78;;
11907;SDS011;6014;47.690;9.130;2023-09-18T06:23:51;9.50;;;3.00;;
11907;SDS011;6014;47.690;9.130;2023-09-18T06:26:21;10.70;;;3.88;;
11907;SDS011;6014;47.690;9.130;2023-09-18T06:28:58;9.88;;;2.95;;
11907;SDS011;6014;47.690;9.130;2023-09-18T06:31:28;8.25;;;2.35;;
11907;SDS011;6014;47.690;9.130;2023-09-18T06:33:57;5.13;;;1.90;;
11907;SDS011;6014;47.690;9.130;2023-09-18T06:36:27;20.45;;;2.75;;
11907;SDS011;6014;47.690;9.130;2023-09-18T06:38:56;6.32;;;2.53;;
11907;SDS011;6014;47.690;9.130;2023-09-18T06:41:24;6.72;;;2.10;;
11907;SDS011;6014;47.690;9.130;2023-09-18T06:44:05;7.55;;;2.05;;
11907;SDS011;6014;47.690;9.130;2023-09-18T06:46:34;7.97;;;2.17;;
11907;SDS011;6014;47.690;9.130;2023-09-18T06:49:03;9.27;;;2.47;;
11907;SDS011;6014;47.690;9.130;2023-09-18T06:51:32;7.15;;;1.98;;
11907;SDS011;6014;47.690;9.130;2023-09-18T06:54:08;9.55;;;2.20;;
11907;SDS011;6014;47.690;9.130;2023-09-18T06:56:37;7.57;;;2.85;;
11907;SDS011;6014;47.690;9.130;2023-09-18T06:59:10;7.38;;;2.33;;
11907;SDS011;6014;47.690;9.130;2023-09-18T07:01:51;8.32;;;2.30;;
11907;SDS011;6014;47.690;9.130;2023-09-18T07:05:15;10.07;;;3.17;;
11907;SDS011;6014;47.690;9.130;2023-09-18T07:08:08;7.50;;;2.42;;
11907;SDS011;6014;47.690;9.130;2023-09-18T07:11:00;8.63;;;2.10;;
11907;SDS011;6014;47.690;9.130;2023-09-18T07:13:58;7.90;;;2.60;;
11907;SDS011;6014;47.690;9.130;2023-09-18T07:16:52;6.00;;;2.40;;
11907;SDS011;6014;47.690;9.130;2023-09-18T07:19:43;8.55;;;2.30;;
11907;SDS011;6014;47.690;9.130;2023-09-18T07:22:12;9.57;;;3.28;;
11907;SDS011;6014;47.690;9.130;2023-09-18T07:25:16;9.65;;;2.97;;
11907;SDS011;6014;47.690;9.130;2023-09-18T07:27:47;6.35;;;2.42;;
11907;SDS011;6014;47.690;9.130;2023-09-18T07:30:23;8.40;;;2.65;;
11907;SDS011;6014;47.690;9.130;2023-09-18T07:36:42;5.63;;;2.50;;
11907;SDS011;6014;47.690;9.130;2023-09-18T07:39:55;11.55;;;3.20;;
11907;SDS011;6014;47.690;9.130;2023-09-18T07:42:54;5.68;;;2.65;;
11907;SDS011;6014;47.690;9.130;2023-09-18T07:45:23;7.43;;;1.70;;
11907;SDS011;6014;47.690;9.130;2023-09-18T07:47:51;8.07;;;1.60;;
11907;SDS011;6014;47.690;9.130;2023-09-18T07:50:25;6.10;;;1.70;;
11907;SDS011;6014;47.690;9.130;2023-09-18T07:52:56;7.93;;;2.10;;
11907;SDS011;6014;47.690;9.130;2023-09-18T07:55:47;4.38;;;1.73;;
11907;SDS011;6014;47.690;9.130;2023-09-18T07:58:37;9.60;;;2.30;;
11907;SDS011;6014;47.690;9.130;2023-09-18T08:01:59;3.72;;;1.30;;
11907;SDS011;6014;47.690;9.130;2023-09-18T08:07:04;5.75;;;1.55;;
11907;SDS011;6014;47.690;9.130;2023-09-18T08:16:01;8.05;;;1.92;;
11907;SDS011;6014;47.690;9.130;2023-09-18T08:18:30;7.10;;;1.60;;
11907;SDS011;6014;47.690;9.130;2023-09-18T08:21:04;4.45;;;1.80;;
11907;SDS011;6014;47.690;9.130;2023-09-18T08:24:10;4.25;;;1.55;;
11907;SDS011;6014;47.690;9.130;2023-09-18T08:26:38;4.47;;;1.50;;
11907;SDS011;6014;47.690;9.130;2023-09-18T08:29:11;3.00;;;1.40;;
11907;SDS011;6014;47.690;9.130;2023-09-18T08:31:43;7.38;;;1.40;;
11907;SDS011;6014;47.690;9.130;2023-09-18T08:34:12;5.03;;;1.60;;
11907;SDS011;6014;47.690;9.130;2023-09-18T08:36:42;4.32;;;1.30;;
11907;SDS011;6014;47.690;9.130;2023-09-18T08:39:48;3.38;;;1.02;;
11907;SDS011;6014;47.690;9.130;2023-09-18T08:42:41;6.18;;;1.55;;
11907;SDS011;6014;47.690;9.130;2023-09-18T08:45:44;4.82;;;1.55;;
11907;SDS011;6014;47.690;9.130;2023-09-18T08:52:39;3.60;;;1.55;;
11907;SDS011;6014;47.690;9.130;2023-09-18T08:55:09;6.72;;;1.70;;
11907;SDS011;6014;47.690;9.130;2023-09-18T08:57:42;5.78;;;1.77;;
11907;SDS011;6014;47.690;9.130;2023-09-18T09:00:12;3.03;;;1.40;;
11907;SDS011;6014;47.690;9.130;2023-09-18T09:06:48;6.10;;;1.63;;
11907;SDS011;6014;47.690;9.130;2023-09-18T09:09:18;3.78;;;1.30;;
11907;SDS011;6014;47.690;9.130;2023-09-18T09:11:50;1.95;;;1.10;;
11907;SDS011;6014;47.690;9.130;2023-09-18T09:14:25;7.22;;;1.50;;
11907;SDS011;6014;47.690;9.130;2023-09-18T09:16:57;5.03;;;1.40;;
11907;SDS011;6014;47.690;9.130;2023-09-18T09:19:28;7.43;;;1.52;;
11907;SDS011;6014;47.690;9.130;2023-09-18T09:29:32;5.07;;;1.33;;
11907;SDS011;6014;47.690;9.130;2023-09-18T09:32:24;3.03;;;1.38;;
11907;SDS011;6014;47.690;9.130;2023-09-18T09:35:27;7.85;;;2.08;;
11907;SDS011;6014;47.690;9.130;2023-09-18T09:38:27;4.20;;;1.50;;
11907;SDS011;6014;47.690;9.130;2023-09-18T09:41:00;3.45;;;1.40;;
11907;SDS011;6014;47.690;9.130;2023-09-18T09:43:31;6.68;;;2.03;;
11907;SDS011;6014;47.690;9.130;2023-09-18T09:46:03;5.15;;;1.77;;
11907;SDS011;6014;47.690;9.130;2023-09-18T09:48:39;8.20;;;1.50;;
11907;SDS011;6014;47.690;9.130;2023-09-18T09:51:10;6.97;;;1.60;;
11907;SDS011;6014;47.690;9.130;2023-09-18T09:53:47;7.70;;;1.85;;
11907;SDS011;6014;47.690;9.130;2023-09-18T09:56:17;4.57;;;1.58;;
11907;SDS011;6014;47.690;9.130;2023-09-18T09:58:59;5.60;;;1.60;;
11907;SDS011;6014;47.690;9.130;2023-09-18T10:01:49;6.50;;;1.58;;
11907;SDS011;6014;47.690;9.130;2023-09-18T10:04:46;6.22;;;1.60;;
11907;SDS011;6014;47.690;9.130;2023-09-18T10:07:16;6.75;;;1.60;;
11907;SDS011;6014;47.690;9.130;2023-09-18T10:09:49;6.53;;;1.90;;
11907;SDS011;6014;47.690;9.130;2023-09-18T10:12:19;4.15;;;2.25;;
11907;SDS011;6014;47.690;9.130;2023-09-18T10:15:13;4.75;;;1.25;;
11907;SDS011;6014;47.690;9.130;2023-09-18T10:21:35;8.73;;;1.80;;
11907;SDS011;6014;47.690;9.130;2023-09-18T10:24:46;4.18;;;1.80;;
11907;SDS011;6014;47.690;9.130;2023-09-18T10:27:15;6.05;;;2.42;;
11907;SDS011;6014;47.690;9.130;2023-09-18T10:29:49;6.47;;;1.80;;
11907;SDS011;6014;47.690;9.130;2023-09-18T10:32:19;3.53;;;1.70;;
11907;SDS011;6014;47.690;9.130;2023-09-18T10:34:49;5.75;;;1.70;;
11907;SDS011;6014;47.690;9.130;2023-09-18T10:37:19;8.02;;;1.85;;
11907;SDS011;6014;47.690;9.130;2023-09-18T10:39:48;4.72;;;1.77;;
11907;SDS011;6014;47.690;9.130;2023-09-18T10:42:18;4.72;;;1.85;;
11907;SDS011;6014;47.690;9.130;2023-09-18T10:44:50;4.45;;;1.70;;
11907;SDS011;6014;47.690;9.130;2023-09-18T10:47:19;6.28;;;2.22;;
11907;SDS011;6014;47.690;9.130;2023-09-18T10:50:11;5.88;;;1.90;;
11907;SDS011;6014;47.690;9.130;2023-09-18T10:52:45;5.47;;;2.20;;
11907;SDS011;6014;47.690;9.130;2023-09-18T10:55:14;4.65;;;2.08;;
11907;SDS011;6014;47.690;9.130;2023-09-18T10:57:51;5.07;;;1.88;;
11907;SDS011;6014;47.690;9.130;2023-09-18T11:00:21;5.78;;;1.88;;
11907;SDS011;6014;47.690;9.130;2023-09-18T11:02:54;5.00;;;1.50;;
11907;SDS011;6014;47.690;9.130;2023-09-18T11:05:38;2.70;;;1.40;;
11907;SDS011;6014;47.690;9.130;2023-09-18T11:10:58;4.72;;;1.92;;
11907;SDS011;6014;47.690;9.130;2023-09-18T11:13:38;4.30;;;1.67;;
11907;SDS011;6014;47.690;9.130;2023-09-18T11:16:15;5.72;;;2.22;;
11907;SDS011;6014;47.690;9.130;2023-09-18T11:18:50;6.00;;;1.95;;
11907;SDS011;6014;47.690;9.130;2023-09-18T11:23:36;5.28;;;1.80;;
11907;SDS011;6014;47.690;9.130;2023-09-18T11:26:02;5.68;;;1.98;;
11907;SDS011;6014;47.690;9.130;2023-09-18T11:29:08;5.35;;;1.55;;
11907;SDS011;6014;47.690;9.130;2023-09-18T11:31:41;6.20;;;1.65;;
11907;SDS011;6014;47.690;9.130;2023-09-18T11:34:19;3.92;;;1.60;;
11907;SDS011;6014;47.690;9.130;2023-09-18T11:36:49;5.25;;;1.98;;
11907;SDS011;6014;47.690;9.130;2023-09-18T11:39:34;3.15;;;1.50;;
11907;SDS011;6014;47.690;9.130;2023-09-18T11:49:05;4.53;;;1.63;;
11907;SDS011;6014;47.690;9.130;2023-09-18T11:51:41;3.97;;;1.58;;
11907;SDS011;6014;47.690;9.130;2023-09-18T11:54:39;3.10;;;1.42;;
11907;SDS011;6014;47.690;9.130;2023-09-18T11:58:06;4.32;;;1.60;;
11907;SDS011;6014;47.690;9.130;2023-09-18T12:01:31;4.07;;;1.60;;
11907;SDS011;6014;47.690;9.130;2023-09-18T12:04:08;4.28;;;1.50;;
11907;SDS011;6014;47.690;9.130;2023-09-18T12:06:40;3.95;;;1.58;;
11907;SDS011;6014;47.690;9.130;2023-09-18T12:09:09;4.20;;;1.55;;
11907;SDS011;6014;47.690;9.130;2023-09-18T12:11:44;4.45;;;1.35;;
11907;SDS011;6014;47.690;9.130;2023-09-18T12:25:45;3.78;;;1.50;;
11907;SDS011;6014;47.690;9.130;2023-09-18T12:28:15;2.42;;;1.30;;
11907;SDS011;6014;47.690;9.130;2023-09-18T12:30:44;4.78;;;1.48;;
11907;SDS011;6014;47.690;9.130;2023-09-18T12:33:17;3.70;;;1.60;;
11907;SDS011;6014;47.690;9.130;2023-09-18T12:35:47;3.95;;;1.40;;
11907;SDS011;6014;47.690;9.130;2023-09-18T12:38:18;5.68;;;1.80;;
11907;SDS011;6014;47.690;9.130;2023-09-18T12:41:01;5.13;;;1.50;;
11907;SDS011;6014;47.690;9.130;2023-09-18T12:44:22;4.40;;;1.25;;
11907;SDS011;6014;47.690;9.130;2023-09-18T12:46:51;3.35;;;1.40;;
11907;SDS011;6014;47.690;9.130;2023-09-18T12:49:21;3.38;;;1.30;;
11907;SDS011;6014;47.690;9.130;2023-09-18T12:51:55;2.72;;;1.23;;
11907;SDS011;6014;47.690;9.130;2023-09-18T12:54:39;4.15;;;1.77;;
11907;SDS011;6014;47.690;9.130;2023-09-18T12:57:16;4.28;;;1.38;;
11907;SDS011;6014;47.690;9.130;2023-09-18T12:59:45;2.47;;;1.20;;
11907;SDS011;6014;47.690;9.130;2023-09-18T13:02:17;2.35;;;1.13;;
11907;SDS011;6014;47.690;9.130;2023-09-18T13:05:30;2.60;;;1.63;;
11907;SDS011;6014;47.690;9.130;2023-09-18T13:11:55;7.40;;;1.27;;
11907;SDS011;6014;47.690;9.130;2023-09-18T13:14:25;2.35;;;1.20;;
11907;SDS011;6014;47.690;9.130;2023-09-18T13:16:59;3.10;;;1.33;;
11907;SDS011;6014;47.690;9.130;2023-09-18T13:19:30;2.35;;;1.30;;
11907;SDS011;6014;47.690;9.130;2023-09-18T13:22:06;2.53;;;1.20;;
11907;SDS011;6014;47.690;9.130;2023-09-18T13:24:35;3.88;;;1.40;;
11907;SDS011;6014;47.690;9.130;2023-09-18T13:27:10;2.78;;;1.02;;
11907;SDS011;6014;47.690;9.130;2023-09-18T13:29:38;8.00;;;2.95;;
11907;SDS011;6014;47.690;9.130;2023-09-18T13:32:08;3.75;;;1.60;;
11907;SDS011;6014;47.690;9.130;2023-09-18T13:34:37;2.90;;;1.20;;
11907;SDS011;6014;47.690;9.130;2023-09-18T13:37:10;3.10;;;1.30;;
11907;SDS011;6014;47.690;9.130;2023-09-18T13:40:01;2.72;;;1.20;;
11907;SDS011;6014;47.690;9.130;2023-09-18T13:42:35;4.15;;;1.45;;
11907;SDS011;6014;47.690;9.130;2023-09-18T13:45:05;3.65;;;1.23;;
11907;SDS011;6014;47.690;9.130;2023-09-18T13:47:35;6.13;;;1.60;;
11907;SDS011;6014;47.690;9.130;2023-09-18T13:50:04;2.10;;;1.20;;
11907;SDS011;6014;47.690;9.130;2023-09-18T13:52:34;4.57;;;1.50;;
11907;SDS011;6014;47.690;9.130;2023-09-18T13:55:36;4.82;;;1.60;;
11907;SDS011;6014;47.690;9.130;2023-09-18T13:58:06;3.28;;;1.48;;
11907;SDS011;6014;47.690;9.130;2023-09-18T14:00:41;1.90;;;1.15;;
11907;SDS011;6014;47.690;9.130;2023-09-18T14:07:36;4.07;;;2.00;;
11907;SDS011;6014;47.690;9.130;2023-09-18T14:10:07;3.75;;;1.58;;
11907;SDS011;6014;47.690;9.130;2023-09-18T14:12:41;2.75;;;1.35;;
11907;SDS011;6014;47.690;9.130;2023-09-18T14:15:15;3.00;;;1.75;;
11907;SDS011;6014;47.690;9.130;2023-09-18T14:18:16;4.53;;;1.40;;
11907;SDS011;6014;47.690;9.130;2023-09-18T14:24:32;3.47;;;1.27;;
11907;SDS011;6014;47.690;9.130;2023-09-18T14:31:44;3.47;;;1.30;;
11907;SDS011;6014;47.690;9.130;2023-09-18T14:34:44;3.90;;;1.40;;
11907;SDS011;6014;47.690;9.130;2023-09-18T14:37:16;6.13;;;1.67;;
11907;SDS011;6014;47.690;9.130;2023-09-18T14:39:47;3.88;;;1.13;;
11907;SDS011;6014;47.690;9.130;2023-09-18T14:42:38;3.17;;;1.92;;
11907;SDS011;6014;47.690;9.130;2023-09-18T14:47:15;3.50;;;1.42;;
11907;SDS011;6014;47.690;9.130;2023-09-18T14:49:25;5.15;;;1.48;;
11907;SDS011;6014;47.690;9.130;2023-09-18T14:52:52;2.90;;;1.27;;
11907;SDS011;6014;47.690;9.130;2023-09-18T14:56:00;3.05;;;1.10;;
11907;SDS011;6014;47.690;9.130;2023-09-18T14:58:51;3.13;;;1.20;;
11907;SDS011;6014;47.690;9.130;2023-09-18T15:02:08;4.47;;;1.30;;
11907;SDS011;6014;47.690;9.130;2023-09-18T15:05:01;3.95;;;1.00;;
11907;SDS011;6014;47.690;9.130;2023-09-18T15:08:02;3.63;;;1.30;;
11907;SDS011;6014;47.690;9.130;2023-09-18T15:10:33;2.17;;;1.02;;
11907;SDS011;6014;47.690;9.130;2023-09-18T15:13:12;5.13;;;1.55;;
11907;SDS011;6014;47.690;9.130;2023-09-18T15:16:22;3.95;;;1.40;;
11907;SDS011;6014;47.690;9.130;2023-09-18T15:26:38;2.53;;;1.40;;
11907;SDS011;6014;47.690;9.130;2023-09-18T15:29:07;5.20;;;1.00;;
11907;SDS011;6014;47.690;9.130;2023-09-18T15:32:07;4.18;;;1.40;;
11907;SDS011;6014;47.690;9.130;2023-09-18T15:35:07;3.03;;;1.20;;
11907;SDS011;6014;47.690;9.130;2023-09-18T15:38:29;4.57;;;1.60;;
11907;SDS011;6014;47.690;9.130;2023-09-18T15:41:32;2.05;;;1.02;;
11907;SDS011;6014;47.690;9.130;2023-09-18T15:47:55;2.35;;;1.15;;
11907;SDS011;6014;47.690;9.130;2023-09-18T15:50:54;4.88;;;1.30;;
11907;SDS011;6014;47.690;9.130;2023-09-18T15:53:49;3.10;;;1.38;;
11907;SDS011;6014;47.690;9.130;2023-09-18T15:57:33;4.28;;;1.10;;
11907;SDS011;6014;47.690;9.130;2023-09-18T16:00:06;2.83;;;1.40;;
11907;SDS011;6014;47.690;9.130;2023-09-18T16:02:36;6.13;;;1.70;;
11907;SDS011;6014;47.690;9.130;2023-09-18T16:20:24;5.15;;;1.70;;
11907;SDS011;6014;47.690;9.130;2023-09-18T16:23:15;4.18;;;1.65;;
11907;SDS011;6014;47.690;9.130;2023-09-18T16:26:06;5.88;;;1.40;;
11907;SDS011;6014;47.690;9.130;2023-09-18T16:28:42;5.28;;;1.35;;
11907;SDS011;6014;47.690;9.130;2023-09-18T16:32:12;2.80;;;1.30;;
11907;SDS011;6014;47.690;9.130;2023-09-18T16:35:34;4.60;;;2.50;;
11907;SDS011;6014;47.690;9.130;2023-09-18T16:38:38;4.63;;;1.48;;
11907;SDS011;6014;47.690;9.130;2023-09-18T16:41:48;3.17;;;1.50;;
11907;SDS011;6014;47.690;9.130;2023-09-18T16:45:08;3.08;;;1.55;;
11907;SDS011;6014;47.690;9.130;2023-09-18T16:48:37;2.97;;;1.60;;
11907;SDS011;6014;47.690;9.130;2023-09-18T16:51:10;4.75;;;1.52;;
11907;SDS011;6014;47.690;9.130;2023-09-18T16:53:55;6.40;;;2.53;;
11907;SDS011;6014;47.690;9.130;2023-09-18T17:00:36;6.18;;;3.95;;
11907;SDS011;6014;47.690;9.130;2023-09-18T17:03:29;17.50;;;12.75;;
11907;SDS011;6014;47.690;9.130;2023-09-18T17:06:26;6.80;;;3.53;;
11907;SDS011;6014;47.690;9.130;2023-09-18T17:08:54;4.07;;;1.73;;
11907;SDS011;6014;47.690;9.130;2023-09-18T17:15:38;4.45;;;2.03;;
11907;SDS011;6014;47.690;9.130;2023-09-18T17:18:38;4.22;;;1.70;;
11907;SDS011;6014;47.690;9.130;2023-09-18T17:21:10;6.65;;;1.80;;
11907;SDS011;6014;47.690;9.130;2023-09-18T17:24:07;4.70;;;1.90;;
11907;SDS011;6014;47.690;9.130;2023-09-18T17:26:40;4.72;;;1.80;;
11907;SDS011;6014;47.690;9.130;2023-09-18T17:29:11;4.03;;;1.83;;
11907;SDS011;6014;47.690;9.130;2023-09-18T17:31:42;5.68;;;1.98;;
11907;SDS011;6014;47.690;9.130;2023-09-18T17:34:46;3.17;;;1.60;;
11907;SDS011;6014;47.690;9.130;2023-09-18T17:37:52;3.38;;;1.63;;
11907;SDS011;6014;47.690;9.130;2023-09-18T17:41:11;4.00;;;1.63;;
11907;SDS011;6014;47.690;9.130;2023-09-18T17:47:32;3.28;;;1.50;;
11907;SDS011;6014;47.690;9.130;2023-09-18T17:50:22;2.90;;;1.45;;
11907;SDS011;6014;47.690;9.130;2023-09-18T17:53:15;3.97;;;1.70;;
11907;SDS011;6014;47.690;9.130;2023-09-18T17:55:58;6.35;;;1.60;;
11907;SDS011;6014;47.690;9.130;2023-09-18T18:02:59;3.28;;;1.60;;
11907;SDS011;6014;47.690;9.130;2023-09-18T18:06:32;4.93;;;1.55;;
11907;SDS011;6014;47.690;9.130;2023-09-18T18:09:34;5.97;;;1.88;;
11907;SDS011;6014;47.690;9.130;2023-09-18T18:12:42;4.90;;;1.65;;
11907;SDS011;6014;47.690;9.130;2023-09-18T18:19:23;5.38;;;1.73;;
11907;SDS011;6014;47.690;9.130;2023-09-18T18:21:52;2.30;;;1.30;;
11907;SDS011;6014;47.690;9.130;2023-09-18T18:24:43;4.95;;;1.80;;
11907;SDS011;6014;47.690;9.130;2023-09-18T18:27:39;5.22;;;1.80;;
11907;SDS011;6014;47.690;9.130;2023-09-18T18:30:36;4.50;;;1.80;;
11907;SDS011;6014;47.690;9.130;2023-09-18T18:33:08;3.90;;;1.73;;
11907;SDS011;6014;47.690;9.130;2023-09-18T18:36:41;5.90;;;1.42;;
11907;SDS011;6014;47.690;9.130;2023-09-18T18:39:48;10.82;;;2.22;;
11907;SDS011;6014;47.690;9.130;2023-09-18T18:43:12;3.90;;;1.73;;
11907;SDS011;6014;47.690;9.130;2023-09-18T18:45:43;6.85;;;1.67;;
11907;SDS011;6014;47.690;9.130;2023-09-18T18:48:13;4.40;;;1.77;;
11907;SDS011;6014;47.690;9.130;2023-09-18T18:50:42;3.75;;;1.63;;
11907;SDS011;6014;47.690;9.130;2023-09-18T18:53:17;5.13;;;1.58;;
11907;SDS011;6014;47.690;9.130;2023-09-18T18:55:47;5.28;;;2.20;;
11907;SDS011;6014;47.690;9.130;2023-09-18T18:58:18;3.15;;;1.50;;
11907;SDS011;6014;47.690;9.130;2023-09-18T19:01:21;6.25;;;1.70;;
11907;SDS011;6014;47.690;9.130;2023-09-18T19:04:31;6.65;;;2.72;;
11907;SDS011;6014;47.690;9.130;2023-09-18T19:07:42;5.55;;;1.65;;
11907;SDS011;6014;47.690;9.130;2023-09-18T19:13:27;6.55;;;3.67;;
11907;SDS011;6014;47.690;9.130;2023-09-18T19:16:34;4.38;;;2.30;;
11907;SDS011;6014;47.690;9.130;2023-09-18T19:19:04;6.55;;;2.15;;
11907;SDS011;6014;47.690;9.130;2023-09-18T19:29:45;5.78;;;2.38;;
11907;SDS011;6014;47.690;9.130;2023-09-18T19:32:57;4.22;;;2.13;;
11907;SDS011;6014;47.690;9.130;2023-09-18T19:35:26;6.45;;;2.70;;
11907;SDS011;6014;47.690;9.130;2023-09-18T19:38:03;9.30;;;2.85;;
11907;SDS011;6014;47.690;9.130;2023-09-18T19:42:09;11.32;;;2.85;;
11907;SDS011;6014;47.690;9.130;2023-09-18T19:46:27;5.25;;;2.22;;
11907;SDS011;6014;47.690;9.130;2023-09-18T19:47:45;8.32;;;3.55;;
11907;SDS011;6014;47.690;9.130;2023-09-18T19:50:16;9.23;;;5.72;;
11907;SDS011;6014;47.690;9.130;2023-09-18T19:52:45;8.98;;;4.40;;
11907;SDS011;6014;47.690;9.130;2023-09-18T19:59:44;8.88;;;4.57;;
11907;SDS011;6014;47.690;9.130;2023-09-18T20:02:32;7.65;;;3.67;;
11907;SDS011;6014;47.690;9.130;2023-09-18T20:05:41;7.45;;;2.85;;
11907;SDS011;6014;47.690;9.130;2023-09-18T20:09:29;7.57;;;2.70;;
11907;SDS011;6014;47.690;9.130;2023-09-18T20:13:01;5.93;;;3.38;;
11907;SDS011;6014;47.690;9.130;2023-09-18T20:16:22;10.80;;;2.83;;
11907;SDS011;6014;47.690;9.130;2023-09-18T20:23:33;6.25;;;2.95;;
11907;SDS011;6014;47.690;9.130;2023-09-18T20:26:01;6.75;;;2.97;;
11907;SDS011;6014;47.690;9.130;2023-09-18T20:28:38;5.00;;;2.30;;
11907;SDS011;6014;47.690;9.130;2023-09-18T20:31:13;5.53;;;2.35;;
11907;SDS011;6014;47.690;9.130;2023-09-18T20:38:01;4.97;;;1.88;;
11907;SDS011;6014;47.690;9.130;2023-09-18T20:41:26;5.30;;;1.70;;
11907;SDS011;6014;47.690;9.130;2023-09-18T20:43:55;2.40;;;1.40;;
11907;SDS011;6014;47.690;9.130;2023-09-18T20:47:14;3.75;;;1.75;;